Time;durP1;ratioP1;P1;durP2;ratioP2;P2;SDS_P1;SDS_P2;PMS_P1;PMS_P2;Temp;Humidity;BMP_temperature;BMP_pressure;BME280_temperature;BME280_humidity;BME280_pressure;Samples;Min_cycle;Max_cycle;Signal;HPM_P1;HPM_P2
2022/04/09 00:00:52;;;;;;;0.63;0.40;;;;;;;20.93;41.02;98253.03;5119612;28;20051;-63
2022/04/09 00:03:17;;;;;;;0.55;0.38;;;;;;;20.94;40.64;98254.63;5120049;28;20161;-63
2022/04/09 00:05:43;;;;;;;0.80;0.50;;;;;;;20.92;40.96;98252.25;5119946;28;20043;-63
2022/04/09 00:08:08;;;;;;;0.88;0.43;;;;;;;20.93;40.68;98251.03;5117856;28;20052;-63
2022/04/09 00:10:33;;;;;;;0.98;0.50;;;;;;;20.94;40.50;98249.88;5121896;28;20045;-63
2022/04/09 00:12:59;;;;;;;0.73;0.47;;;;;;;20.91;40.43;98253.44;5121531;28;20035;-63
2022/04/09 00:15:24;;;;;;;1.05;0.40;;;;;;;20.94;40.41;98243.53;5119902;28;20043;-63
2022/04/09 00:17:50;;;;;;;0.63;0.40;;;;;;;20.93;40.46;98256.59;5121663;28;20519;-63
2022/04/09 00:20:19;;;;;;;0.43;0.35;;;;;;;20.92;40.49;98263.34;5122057;28;20039;-63
2022/04/09 00:22:45;;;;;;;0.50;0.30;;;;;;;20.92;40.04;98260.56;5121604;28;20043;-63
2022/04/09 00:25:13;;;;;;;0.88;0.45;;;;;;;20.93;39.75;98272.47;5120356;28;20058;-63
2022/04/09 00:27:39;;;;;;;0.85;0.40;;;;;;;20.93;39.50;98278.03;5117259;28;20499;-63
2022/04/09 00:30:08;;;;;;;0.55;0.30;;;;;;;20.94;39.43;98290.78;5120733;28;20156;-63
2022/04/09 00:32:34;;;;;;;0.47;0.25;;;;;;;20.95;39.75;98286.78;5119687;28;20047;-63
2022/04/09 00:35:00;;;;;;;0.70;0.38;;;;;;;20.94;39.71;98290.78;5119225;28;20052;-63
2022/04/09 00:37:26;;;;;;;1.05;0.43;;;;;;;20.96;39.56;98291.16;5120323;28;20631;-63
2022/04/09 00:39:52;;;;;;;0.95;0.60;;;;;;;20.95;39.29;98292.34;5119799;28;20446;-63
2022/04/09 00:42:18;;;;;;;0.40;0.30;;;;;;;20.95;39.22;98295.13;5121386;28;20140;-63
2022/04/09 00:44:45;;;;;;;0.60;0.40;;;;;;;20.95;39.06;98304.25;5121781;28;20091;-63
2022/04/09 00:47:11;;;;;;;0.93;0.45;;;;;;;20.97;39.34;98292.72;5121586;28;20465;-63
2022/04/09 00:49:39;;;;;;;1.10;0.55;;;;;;;20.93;39.11;98303.84;5120179;28;20530;-63
2022/04/09 00:52:07;;;;;;;0.93;0.40;;;;;;;20.93;39.03;98298.28;5118977;28;20095;-63
2022/04/09 00:54:34;;;;;;;0.63;0.40;;;;;;;20.95;38.66;98325.72;5119379;28;20035;-63
2022/04/09 00:57:07;;;;;;;0.50;0.32;;;;;;;20.93;39.21;98316.97;5119183;28;20043;-63
2022/04/09 00:59:37;;;;;;;0.95;0.52;;;;;;;20.93;38.64;98322.53;5118481;28;20090;-63
2022/04/09 01:02:03;;;;;;;0.88;0.45;;;;;;;20.94;38.40;98311.03;5119658;28;20504;-63
2022/04/09 01:04:31;;;;;;;1.17;0.60;;;;;;;20.93;38.42;98322.53;5121120;28;20046;-63
2022/04/09 01:06:59;;;;;;;0.50;0.40;;;;;;;20.93;38.46;98328.88;5121046;28;20039;-63
2022/04/09 01:09:24;;;;;;;1.15;0.57;;;;;;;20.94;38.48;98340.81;5120502;28;20050;-63
2022/04/09 01:11:50;;;;;;;1.10;0.60;;;;;;;20.93;38.42;98340.00;5121960;27;20118;-63
2022/04/09 01:14:17;;;;;;;0.80;0.40;;;;;;;20.95;38.21;98339.59;5124407;28;20047;-63
2022/04/09 01:16:42;;;;;;;0.80;0.40;;;;;;;20.94;38.03;98347.16;5124757;28;20046;-63
2022/04/09 01:19:08;;;;;;;0.55;0.30;;;;;;;20.94;37.72;98360.25;5124528;28;20040;-63
2022/04/09 01:21:33;;;;;;;1.42;0.65;;;;;;;20.94;37.55;98349.16;5117941;28;20040;-63
2022/04/09 01:24:00;;;;;;;0.35;0.30;;;;;;;20.95;37.52;98364.63;5124539;28;20039;-63
2022/04/09 01:26:26;;;;;;;0.45;0.30;;;;;;;20.96;37.35;98367.00;5122719;28;20177;-63
2022/04/09 01:28:52;;;;;;;0.47;0.30;;;;;;;20.96;37.52;98372.56;5121509;28;20479;-63
2022/04/09 01:31:18;;;;;;;0.45;0.43;;;;;;;20.96;37.05;98369.00;5124543;28;20035;-63
2022/04/09 01:33:44;;;;;;;0.73;0.40;;;;;;;20.95;37.23;98376.53;5122587;28;20414;-63
2022/04/09 01:36:09;;;;;;;0.50;0.30;;;;;;;20.95;37.44;98384.09;5124378;28;20048;-63
2022/04/09 01:38:36;;;;;;;0.90;0.40;;;;;;;20.95;36.89;98370.19;5123464;28;20422;-63
2022/04/09 01:41:02;;;;;;;0.73;0.50;;;;;;;20.95;36.94;98381.31;5126588;28;20039;-63
2022/04/09 01:43:28;;;;;;;0.88;0.40;;;;;;;20.92;37.26;98382.09;5122684;28;20046;-63
2022/04/09 01:45:53;;;;;;;0.77;0.40;;;;;;;20.95;37.10;98390.44;5122115;28;20094;-63
2022/04/09 01:48:19;;;;;;;0.95;0.52;;;;;;;20.93;37.21;98392.81;5122240;28;20917;-63
2022/04/09 01:50:45;;;;;;;0.80;0.30;;;;;;;20.92;37.44;98407.09;5123946;28;20036;-63
2022/04/09 01:53:11;;;;;;;0.28;0.20;;;;;;;20.92;37.11;98401.53;5124085;28;20039;-58
2022/04/09 01:55:37;;;;;;;0.70;0.40;;;;;;;20.91;37.53;98402.75;5123670;28;20039;-58
2022/04/09 01:58:03;;;;;;;0.80;0.30;;;;;;;20.90;37.73;98385.28;5122595;28;20117;-58
2022/04/09 02:00:29;;;;;;;0.32;0.30;;;;;;;20.89;37.67;98392.81;5123842;28;20063;-58
2022/04/09 02:02:54;;;;;;;0.43;0.30;;;;;;;20.89;37.71;98409.50;5124280;28;20072;-58
2022/04/09 02:05:20;;;;;;;0.68;0.40;;;;;;;20.89;37.49;98437.28;5123917;28;20134;-59
2022/04/09 02:07:47;;;;;;;1.17;0.40;;;;;;;20.89;37.32;98442.84;5121414;28;20542;-59
2022/04/09 02:10:14;;;;;;;0.77;0.40;;;;;;;20.89;37.72;98451.19;5121892;28;20139;-58
2022/04/09 02:12:40;;;;;;;0.47;0.30;;;;;;;20.90;37.87;98468.66;5121959;28;20043;-59
2022/04/09 02:15:10;;;;;;;0.73;0.40;;;;;;;20.88;37.88;98463.50;5121424;28;20105;-59
2022/04/09 02:17:38;;;;;;;0.30;0.30;;;;;;;20.88;37.88;98469.06;5122255;28;20521;-59
2022/04/09 02:20:05;;;;;;;0.57;0.30;;;;;;;20.88;37.93;98484.94;5123592;28;20147;-59
2022/04/09 02:22:38;;;;;;;0.90;0.30;;;;;;;20.87;38.10;98473.03;5120395;28;20412;-58
2022/04/09 02:25:04;;;;;;;0.30;0.10;;;;;;;20.88;38.20;98479.41;5122657;28;20147;-59
2022/04/09 02:27:30;;;;;;;0.75;0.30;;;;;;;20.88;38.16;98488.53;5123696;28;20050;-58
2022/04/09 02:29:56;;;;;;;0.20;0.20;;;;;;;20.86;38.01;98485.34;5123575;28;20043;-58
2022/04/09 02:32:22;;;;;;;0.40;0.30;;;;;;;20.85;37.85;98497.63;5123595;28;20122;-59
2022/04/09 02:34:49;;;;;;;0.57;0.20;;;;;;;20.88;38.24;98482.19;5121636;28;20063;-59
2022/04/09 02:37:15;;;;;;;0.10;0.10;;;;;;;20.91;38.18;98477.78;5121055;28;20135;-58
2022/04/09 02:39:40;;;;;;;0.30;0.20;;;;;;;20.91;37.74;98477.78;5121474;28;20051;-58
2022/04/09 02:42:06;;;;;;;0.17;0.15;;;;;;;20.91;37.67;98486.13;5121547;28;20442;-58
2022/04/09 02:44:32;;;;;;;0.43;0.20;;;;;;;20.91;37.71;98481.38;5122008;28;20047;-58
2022/04/09 02:46:58;;;;;;;0.68;0.30;;;;;;;20.92;37.56;98496.84;5122741;28;20043;-63
2022/04/09 02:49:23;;;;;;;0.30;0.20;;;;;;;20.94;37.89;98493.69;5123237;28;20423;-63
2022/04/09 02:51:49;;;;;;;0.30;0.20;;;;;;;20.95;37.76;98493.28;5121030;28;20043;-59
2022/04/09 02:54:16;;;;;;;0.38;0.28;;;;;;;20.96;37.68;98494.88;5123346;28;20039;-59
2022/04/09 02:56:43;;;;;;;0.20;0.10;;;;;;;20.98;37.65;98497.25;5122379;28;20077;-59
2022/04/09 02:59:12;;;;;;;0.10;0.10;;;;;;;20.97;37.26;98502.03;5117862;28;20506;-58
2022/04/09 03:01:38;;;;;;;0.30;0.20;;;;;;;20.99;37.36;98532.19;5121343;28;20100;-58
2022/04/09 03:04:03;;;;;;;0.10;0.10;;;;;;;20.98;37.44;98530.59;5121049;28;20297;-58
2022/04/09 03:06:29;;;;;;;2.20;0.20;;;;;;;20.99;37.05;98532.97;5119859;28;20078;-58
2022/04/09 03:08:54;;;;;;;0.55;0.28;;;;;;;21.01;37.20;98515.94;5122999;28;20127;-59
2022/04/09 03:11:19;;;;;;;0.20;0.20;;;;;;;21.01;36.99;98591.78;5121113;28;20054;-59
2022/04/09 03:13:45;;;;;;;0.10;0.10;;;;;;;21.02;37.20;98617.59;5122108;28;20067;-58
2022/04/09 03:16:10;;;;;;;0.10;0.10;;;;;;;21.02;37.01;98612.84;5087643;28;20040;-58
2022/04/09 03:18:35;;;;;;;0.28;0.10;;;;;;;21.03;36.74;98510.75;5124569;28;20487;-58
2022/04/09 03:21:01;;;;;;;0.20;0.10;;;;;;;21.01;36.55;98611.25;5121513;28;20050;-58
2022/04/09 03:23:26;;;;;;;0.20;0.20;;;;;;;21.03;36.66;98586.63;5117513;28;20392;-59
2022/04/09 03:25:52;;;;;;;0.32;0.20;;;;;;;21.05;36.23;98581.44;5120481;28;20071;-58
2022/04/09 03:28:18;;;;;;;0.10;0.10;;;;;;;21.04;36.05;98623.56;5121879;28;20063;-58
2022/04/09 03:30:44;;;;;;;0.15;0.15;;;;;;;21.05;36.04;98594.56;5122247;28;20505;-58
2022/04/09 03:33:09;;;;;;;0.10;0.10;;;;;;;21.06;35.79;98638.63;5122006;28;20047;-58
2022/04/09 03:35:35;;;;;;;0.10;0.03;;;;;;;21.06;35.89;98632.28;5121306;28;20047;-63
2022/04/09 03:38:00;;;;;;;0.05;0.05;;;;;;;21.06;35.85;98615.59;5121821;28;20044;-59
2022/04/09 03:40:26;;;;;;;0.43;0.20;;;;;;;21.09;35.66;98617.63;5122665;28;20415;-58
2022/04/09 03:42:51;;;;;;;0.00;0.00;;;;;;;21.08;35.40;98649.41;5122613;28;20043;-58
2022/04/09 03:45:16;;;;;;;0.10;0.10;;;;;;;21.08;35.66;98652.16;5120271;28;20099;-59
2022/04/09 03:47:42;;;;;;;0.00;0.00;;;;;;;21.08;35.23;98644.63;5120453;28;20079;-58
2022/04/09 03:50:07;;;;;;;0.10;0.10;;;;;;;21.12;35.20;98664.06;5120324;28;20122;-59
2022/04/09 03:52:33;;;;;;;0.00;0.00;;;;;;;21.12;34.95;98652.94;5120051;28;20435;-59
2022/04/09 03:54:58;;;;;;;0.10;0.10;;;;;;;21.13;35.32;98662.88;5094680;28;20189;-59
2022/04/09 03:57:24;;;;;;;0.00;0.00;;;;;;;21.15;35.31;98691.13;5122399;28;20395;-59
2022/04/09 03:59:54;;;;;;;0.10;0.10;;;;;;;21.14;34.67;98664.47;5120870;28;20419;-58
2022/04/09 04:02:19;;;;;;;0.10;0.10;;;;;;;21.15;34.89;98672.44;5120164;28;20059;-59
2022/04/09 04:04:44;;;;;;;0.00;0.00;;;;;;;21.16;34.80;98665.69;5122273;28;20435;-58
2022/04/09 04:07:10;;;;;;;0.08;0.08;;;;;;;21.16;34.58;98659.34;5121953;28;20126;-59
2022/04/09 04:09:36;;;;;;;0.17;0.10;;;;;;;21.20;34.44;98692.69;5121463;28;20070;-58
2022/04/09 04:12:01;;;;;;;0.20;0.10;;;;;;;21.19;34.71;98682.75;5120277;28;20047;-58
2022/04/09 04:14:28;;;;;;;0.00;0.00;;;;;;;21.19;34.46;98700.25;5119427;28;20115;-58
2022/04/09 04:16:53;;;;;;;0.10;0.10;;;;;;;21.20;34.14;98699.03;5119575;28;20047;-58
2022/04/09 04:19:19;;;;;;;0.05;0.05;;;;;;;21.21;34.12;98688.72;5120026;28;20054;-59
2022/04/09 04:21:44;;;;;;;0.10;0.10;;;;;;;21.20;33.98;98707.38;5121147;28;20043;-59
2022/04/09 04:24:10;;;;;;;0.20;0.20;;;;;;;21.21;34.23;98725.66;5121895;28;20420;-58
2022/04/09 04:26:36;;;;;;;0.00;0.00;;;;;;;21.21;34.02;98742.34;5120546;28;20040;-58
2022/04/09 04:29:01;;;;;;;0.00;0.00;;;;;;;21.22;34.17;98752.31;5124149;28;20042;-58
2022/04/09 04:31:26;;;;;;;0.00;0.00;;;;;;;21.23;34.02;98750.31;5121573;28;20526;-59
2022/04/09 04:33:52;;;;;;;0.08;0.08;;;;;;;21.21;33.64;98747.91;5117262;28;20054;-59
2022/04/09 04:36:17;;;;;;;0.08;0.08;;;;;;;21.24;33.77;98760.25;5123846;28;20086;-58
2022/04/09 04:38:43;;;;;;;0.00;0.00;;;;;;;21.24;33.88;98749.13;5116695;28;20111;-63
2022/04/09 04:41:08;;;;;;;0.00;0.00;;;;;;;21.25;33.74;98772.97;5119642;28;20046;-63
2022/04/09 04:43:34;;;;;;;0.10;0.10;;;;;;;21.26;33.46;98777.34;5120386;28;20092;-63
2022/04/09 04:45:59;;;;;;;0.00;0.00;;;;;;;21.24;33.75;98765.81;5121014;28;20050;-63
2022/04/09 04:48:25;;;;;;;0.10;0.10;;;;;;;21.26;33.80;98783.69;5121407;28;20085;-63
2022/04/09 04:50:50;;;;;;;0.10;0.00;;;;;;;21.26;33.43;98786.47;5119443;28;20051;-63
2022/04/09 04:53:16;;;;;;;0.10;0.10;;;;;;;21.25;33.36;98775.75;5120581;28;20132;-63
2022/04/09 04:55:42;;;;;;;0.00;0.00;;;;;;;21.24;33.37;98788.88;5121548;28;20043;-63
2022/04/09 04:58:07;;;;;;;0.10;0.10;;;;;;;21.25;33.45;98796.00;5121224;28;20043;-58
2022/04/09 05:00:33;;;;;;;0.15;0.10;;;;;;;21.26;33.13;98794.81;5120139;28;20526;-59
2022/04/09 05:02:59;;;;;;;0.10;0.10;;;;;;;21.25;33.38;98798.00;5116423;28;20044;-58
2022/04/09 05:05:24;;;;;;;0.00;0.00;;;;;;;21.27;33.22;98793.63;5120916;28;20039;-59
2022/04/09 05:07:51;;;;;;;0.13;0.10;;;;;;;21.25;33.29;98798.78;5117806;28;20040;-58
2022/04/09 05:10:21;;;;;;;0.10;0.10;;;;;;;21.25;33.37;98790.44;5118787;28;20084;-59
2022/04/09 05:12:48;;;;;;;0.10;0.10;;;;;;;21.25;33.08;98790.44;5120617;28;20126;-58
2022/04/09 05:15:15;;;;;;;0.00;0.00;;;;;;;21.25;33.19;98798.78;5119080;28;20515;-59
2022/04/09 05:17:41;;;;;;;0.00;0.00;;;;;;;21.24;32.98;98797.22;5120608;28;20089;-58
2022/04/09 05:20:09;;;;;;;0.00;0.00;;;;;;;21.25;33.08;98806.34;5118005;28;20044;-58
2022/04/09 05:22:36;;;;;;;0.00;0.00;;;;;;;21.25;32.93;98821.03;5122367;28;20031;-58
2022/04/09 05:25:03;;;;;;;0.00;0.00;;;;;;;21.24;32.81;98804.75;5119984;28;20798;-58
2022/04/09 05:27:29;;;;;;;0.10;0.10;;;;;;;21.24;32.92;98804.75;5119005;28;20050;-63
2022/04/09 05:29:55;;;;;;;0.20;0.10;;;;;;;21.26;33.10;98808.72;5118258;28;20035;-63
2022/04/09 05:32:20;;;;;;;0.03;0.03;;;;;;;21.25;32.69;98811.91;5118770;28;20047;-63
2022/04/09 05:34:46;;;;;;;0.00;0.00;;;;;;;21.25;32.69;98821.03;5118861;28;20392;-63
2022/04/09 05:37:12;;;;;;;0.10;0.10;;;;;;;21.24;32.65;98821.44;5120616;28;20139;-63
2022/04/09 05:39:37;;;;;;;0.20;0.10;;;;;;;21.22;32.81;98827.41;5120724;28;20043;-64
2022/04/09 05:42:03;;;;;;;0.00;0.00;;;;;;;21.23;32.57;98831.78;5119321;28;20126;-63
2022/04/09 05:44:28;;;;;;;0.00;0.00;;;;;;;21.23;32.69;98829.00;5119730;28;20035;-59
2022/04/09 05:46:54;;;;;;;0.00;0.00;;;;;;;21.24;32.54;98827.81;5120885;28;20128;-58
2022/04/09 05:49:20;;;;;;;0.10;0.10;;;;;;;21.23;32.82;98834.56;5120586;28;20039;-59
2022/04/09 05:51:49;;;;;;;0.10;0.10;;;;;;;21.23;32.73;98851.25;5120037;28;20100;-59
2022/04/09 05:54:14;;;;;;;0.10;0.10;;;;;;;21.22;32.87;98858.00;5118778;28;20053;-58
2022/04/09 05:56:40;;;;;;;0.00;0.00;;;;;;;21.23;32.82;98854.03;5118708;27;20039;-58
2022/04/09 05:59:05;;;;;;;0.17;0.10;;;;;;;21.23;32.59;98856.81;5119138;28;20109;-59
2022/04/09 06:01:31;;;;;;;0.05;0.05;;;;;;;21.24;32.92;98857.59;5122867;28;20454;-59
2022/04/09 06:03:57;;;;;;;0.20;0.20;;;;;;;21.22;32.53;98852.44;5123997;28;20067;-58
2022/04/09 06:06:22;;;;;;;0.08;0.08;;;;;;;21.21;32.86;98850.03;5123207;28;20050;-59
2022/04/09 06:08:48;;;;;;;0.03;0.03;;;;;;;21.23;32.60;98856.00;5122560;28;20139;-59
2022/04/09 06:11:14;;;;;;;0.00;0.00;;;;;;;21.20;32.91;98865.91;5123971;28;20511;-59
2022/04/09 06:13:40;;;;;;;0.10;0.10;;;;;;;21.20;32.50;98873.47;5124175;28;21055;-58
2022/04/09 06:16:08;;;;;;;0.08;0.08;;;;;;;21.22;32.39;98866.34;5123749;28;20465;-59
2022/04/09 06:18:37;;;;;;;0.00;0.00;;;;;;;21.23;32.77;98872.69;5119540;28;20058;-59
2022/04/09 06:21:04;;;;;;;0.25;0.10;;;;;;;21.22;32.59;98869.13;5121957;28;20043;-58
2022/04/09 06:23:29;;;;;;;0.00;0.00;;;;;;;21.23;32.56;98872.69;5121579;28;20442;-59
2022/04/09 06:25:54;;;;;;;0.10;0.10;;;;;;;21.23;32.47;98887.41;5122355;28;20046;-58
2022/04/09 06:28:20;;;;;;;0.10;0.10;;;;;;;21.24;32.68;98875.09;5123853;28;20088;-59
2022/04/09 06:30:45;;;;;;;0.17;0.10;;;;;;;21.22;32.66;98874.69;5123149;28;20064;-59
2022/04/09 06:33:10;;;;;;;0.10;0.00;;;;;;;21.23;32.58;98869.91;5121787;28;20107;-59
2022/04/09 06:35:36;;;;;;;0.00;0.00;;;;;;;21.22;32.65;98865.53;5123384;28;20420;-58
2022/04/09 06:38:02;;;;;;;0.10;0.10;;;;;;;21.22;32.34;98880.25;5120150;28;20396;-58
2022/04/09 06:40:28;;;;;;;0.10;0.10;;;;;;;21.23;32.79;98872.69;5125548;28;20035;-59
2022/04/09 06:42:54;;;;;;;0.05;0.05;;;;;;;21.23;32.52;98876.28;5122170;28;20119;-59
2022/04/09 06:45:19;;;;;;;0.10;0.10;;;;;;;21.22;32.51;98869.13;5121048;28;20076;-59
2022/04/09 06:47:47;;;;;;;0.10;0.10;;;;;;;21.24;32.39;98902.91;5121558;28;20134;-59
2022/04/09 06:50:13;;;;;;;0.20;0.10;;;;;;;21.24;32.51;98875.09;5121226;28;20384;-58
2022/04/09 06:52:40;;;;;;;0.30;0.10;;;;;;;21.24;32.57;98877.06;5120879;28;20416;-58
2022/04/09 06:55:07;;;;;;;0.30;0.10;;;;;;;21.24;32.58;98890.97;5120336;28;20035;-59
2022/04/09 06:57:33;;;;;;;0.98;0.10;;;;;;;21.23;32.38;98895.75;5120698;28;20088;-58
2022/04/09 06:59:59;;;;;;;0.00;0.00;;;;;;;21.24;32.45;98872.31;5125467;28;20094;-59
2022/04/09 07:02:25;;;;;;;0.30;0.10;;;;;;;21.21;32.38;98873.06;5121349;28;20035;-58
2022/04/09 07:04:51;;;;;;;0.10;0.10;;;;;;;21.23;32.15;98881.06;5120703;28;20423;-63
2022/04/09 07:07:21;;;;;;;0.10;0.10;;;;;;;21.23;32.26;98881.06;5121056;28;20051;-63
2022/04/09 07:09:46;;;;;;;0.10;0.10;;;;;;;21.22;32.24;98874.69;5119117;28;20043;-63
2022/04/09 07:12:11;;;;;;;0.08;0.08;;;;;;;21.20;32.13;98857.56;5123195;28;20039;-58
2022/04/09 07:14:37;;;;;;;0.00;0.00;;;;;;;21.25;32.43;98859.19;5121460;28;20138;-58
2022/04/09 07:17:03;;;;;;;0.08;0.03;;;;;;;21.24;32.13;98854.81;5122042;28;20059;-59
2022/04/09 07:19:29;;;;;;;0.00;0.00;;;;;;;21.24;32.18;98860.38;5122935;28;20043;-58
2022/04/09 07:21:54;;;;;;;0.10;0.10;;;;;;;21.26;32.36;98867.13;5122552;28;20051;-58
2022/04/09 07:24:20;;;;;;;0.10;0.10;;;;;;;21.26;31.99;98875.47;5122482;28;20130;-58
2022/04/09 07:26:45;;;;;;;0.00;0.00;;;;;;;21.27;32.15;98868.72;5121115;28;20047;-59
2022/04/09 07:29:11;;;;;;;0.00;0.00;;;;;;;21.25;32.16;98876.69;5119651;28;20054;-58
2022/04/09 07:31:36;;;;;;;0.10;0.10;;;;;;;21.24;32.25;98883.44;5120587;28;20337;-59
2022/04/09 07:34:01;;;;;;;0.10;0.10;;;;;;;21.24;32.34;98877.88;5120737;28;20135;-59
2022/04/09 07:36:28;;;;;;;0.00;0.00;;;;;;;21.27;32.19;98893.75;5122130;28;20415;-63
2022/04/09 07:38:54;;;;;;;0.05;0.00;;;;;;;21.25;32.19;98907.28;5122459;28;20541;-63
2022/04/09 07:41:19;;;;;;;0.10;0.10;;;;;;;21.25;32.34;98889.78;5121409;28;20035;-63
2022/04/09 07:43:44;;;;;;;0.00;0.00;;;;;;;21.24;32.26;98889.00;5121066;28;20043;-59
2022/04/09 07:46:10;;;;;;;0.10;0.10;;;;;;;21.26;31.98;98894.97;5122465;28;20450;-59
2022/04/09 07:48:35;;;;;;;0.10;0.10;;;;;;;21.26;32.22;98896.94;5122593;28;20043;-58
2022/04/09 07:51:01;;;;;;;0.10;0.10;;;;;;;21.25;31.96;98896.16;5122238;28;20578;-58
2022/04/09 07:53:26;;;;;;;0.20;0.20;;;;;;;21.25;32.14;98898.13;5116271;28;20514;-58
2022/04/09 07:55:52;;;;;;;0.10;0.10;;;;;;;21.25;32.28;98904.50;5120354;28;20150;-59
2022/04/09 07:58:17;;;;;;;0.10;0.10;;;;;;;21.25;32.15;98915.63;5121513;28;20508;-59
2022/04/09 08:00:45;;;;;;;0.10;0.10;;;;;;;21.25;31.88;98903.69;5121964;28;20038;-59
2022/04/09 08:03:11;;;;;;;0.10;0.10;;;;;;;21.23;32.16;98904.09;5121767;28;20039;-58
2022/04/09 08:05:37;;;;;;;0.00;0.00;;;;;;;21.25;31.99;98901.72;5120304;28;20059;-59
2022/04/09 08:08:03;;;;;;;0.08;0.08;;;;;;;21.25;32.23;98914.81;5121835;28;20061;-58
2022/04/09 08:10:29;;;;;;;0.15;0.10;;;;;;;21.26;32.19;98913.63;5125534;28;20484;-58
2022/04/09 08:12:56;;;;;;;0.08;0.08;;;;;;;21.23;31.92;98915.22;5122055;28;20062;-58
2022/04/09 08:15:23;;;;;;;0.00;0.00;;;;;;;21.24;32.16;98930.72;5120445;28;20047;-58
2022/04/09 08:17:49;;;;;;;0.10;0.10;;;;;;;21.25;31.91;98923.97;5119802;28;20043;-58
2022/04/09 08:20:18;;;;;;;0.10;0.10;;;;;;;21.26;32.00;98921.97;5119306;27;20047;-58
2022/04/09 08:22:44;;;;;;;0.10;0.10;;;;;;;21.27;32.37;98929.13;5119914;28;20122;-58
2022/04/09 08:25:09;;;;;;;0.00;0.00;;;;;;;21.26;31.94;98938.66;5119362;28;20048;-58
2022/04/09 08:27:35;;;;;;;0.10;0.10;;;;;;;21.25;32.31;98939.84;5121650;28;20035;-59
2022/04/09 08:30:02;;;;;;;0.20;0.20;;;;;;;21.25;32.12;98946.22;5121435;28;20050;-58
2022/04/09 08:32:29;;;;;;;0.10;0.10;;;;;;;21.24;32.28;98929.91;5120787;28;20039;-58
2022/04/09 08:34:55;;;;;;;0.10;0.08;;;;;;;21.25;32.39;98946.22;5120193;28;20044;-59
2022/04/09 08:37:22;;;;;;;0.10;0.10;;;;;;;21.28;32.03;98934.31;5120976;28;20058;-58
2022/04/09 08:39:48;;;;;;;0.10;0.10;;;;;;;21.27;32.45;98935.50;5121784;28;20050;-59
2022/04/09 08:42:14;;;;;;;0.20;0.10;;;;;;;21.27;32.22;98935.50;5121754;28;20047;-58
2022/04/09 08:44:40;;;;;;;0.10;0.10;;;;;;;21.27;32.13;98940.25;5119604;28;20384;-59
2022/04/09 08:47:05;;;;;;;0.10;0.10;;;;;;;21.27;32.22;98938.28;5119641;28;20047;-63
2022/04/09 08:49:36;;;;;;;0.13;0.13;;;;;;;21.28;32.57;98942.66;5119247;28;20047;-63
2022/04/09 08:52:02;;;;;;;0.10;0.10;;;;;;;21.26;32.36;98947.81;5118989;28;20046;-63
2022/04/09 08:54:29;;;;;;;0.10;0.10;;;;;;;21.28;32.13;98951.00;5119258;28;20051;-63
2022/04/09 08:56:54;;;;;;;0.10;0.10;;;;;;;21.29;32.53;98932.34;5121077;28;20040;-63
2022/04/09 08:59:20;;;;;;;0.03;0.00;;;;;;;21.29;32.45;98949.03;5121141;28;20042;-63
2022/04/09 09:01:45;;;;;;;0.20;0.20;;;;;;;21.26;32.30;98936.69;5119994;28;20032;-63
2022/04/09 09:04:11;;;;;;;0.10;0.10;;;;;;;21.28;32.45;98944.66;5120276;28;20069;-63
2022/04/09 09:06:40;;;;;;;0.10;0.10;;;;;;;21.27;32.15;98935.50;5120747;28;20051;-63
2022/04/09 09:09:06;;;;;;;0.10;0.10;;;;;;;21.27;32.51;98946.63;5120419;28;20510;-63
2022/04/09 09:11:47;;;;;;;0.15;0.15;;;;;;;21.27;32.03;98943.03;5119170;28;20047;-63
2022/04/09 09:14:28;;;;;;;0.13;0.13;;;;;;;21.26;32.49;98945.03;5118777;28;20054;-63
2022/04/09 09:16:54;;;;;;;0.20;0.10;;;;;;;21.27;32.48;98954.97;5118794;28;20040;-63
2022/04/09 09:19:21;;;;;;;0.20;0.20;;;;;;;21.28;32.32;98939.88;5119108;28;20055;-62
2022/04/09 09:21:54;;;;;;;0.43;0.30;;;;;;;21.29;32.09;98935.94;5118697;28;20048;-63
2022/04/09 09:24:20;;;;;;;0.10;0.10;;;;;;;21.30;32.33;98957.00;5119000;28;20039;-63
2022/04/09 09:26:45;;;;;;;0.10;0.10;;;;;;;21.30;32.34;98937.53;5119236;28;20035;-63
2022/04/09 09:29:26;;;;;;;0.10;0.10;;;;;;;21.31;32.33;98947.47;5120665;28;20399;-63
2022/04/09 09:31:52;;;;;;;0.08;0.08;;;;;;;21.28;32.40;98948.22;5121600;27;20173;-63
2022/04/09 09:34:21;;;;;;;0.13;0.10;;;;;;;21.30;32.44;98953.44;5124718;28;20115;-63
2022/04/09 09:36:48;;;;;;;0.10;0.10;;;;;;;21.31;32.37;98955.81;5123253;28;20043;-63
2022/04/09 09:39:16;;;;;;;0.10;0.10;;;;;;;21.28;32.47;98959.38;5124980;27;20058;-63
2022/04/09 09:42:04;;;;;;;0.10;0.10;;;;;;;21.27;32.50;98954.97;5122464;28;20043;-63
2022/04/09 09:44:34;;;;;;;0.10;0.10;;;;;;;21.27;32.57;98960.53;5121961;28;20511;-63
2022/04/09 09:47:08;;;;;;;0.17;0.10;;;;;;;21.25;32.59;98956.53;5124539;28;20062;-63
2022/04/09 09:49:38;;;;;;;0.20;0.20;;;;;;;21.24;32.14;98949.38;5124252;28;20089;-63
2022/04/09 09:52:09;;;;;;;0.20;0.20;;;;;;;21.24;32.33;98957.72;5124080;28;20479;-62
2022/04/09 09:54:59;;;;;;;0.10;0.10;;;;;;;21.23;32.40;98961.72;5124351;28;20054;-63
2022/04/09 09:57:28;;;;;;;0.10;0.10;;;;;;;21.23;32.13;98962.50;5124075;28;20043;-63
2022/04/09 10:00:02;;;;;;;0.30;0.20;;;;;;;21.23;32.47;98975.63;5122773;28;20449;-63
2022/04/09 10:02:28;;;;;;;0.20;0.20;;;;;;;21.23;32.48;98981.97;5122410;28;20133;-63
2022/04/09 10:04:54;;;;;;;0.30;0.30;;;;;;;21.22;32.48;98997.06;5085898;28;20060;-62
2022/04/09 10:07:20;;;;;;;0.28;0.28;;;;;;;21.22;32.39;98996.25;5121679;28;20099;-63
2022/04/09 10:09:49;;;;;;;0.10;0.10;;;;;;;21.20;32.27;98996.63;5121850;28;20504;-63
2022/04/09 10:12:18;;;;;;;0.30;0.30;;;;;;;21.18;32.51;98999.00;5122649;28;20184;-63
2022/04/09 10:14:49;;;;;;;0.22;0.20;;;;;;;21.18;32.59;98996.22;5123659;28;20031;-63
2022/04/09 10:17:18;;;;;;;0.30;0.20;;;;;;;21.16;32.70;98973.59;5122039;28;20048;-59
2022/04/09 10:19:44;;;;;;;0.30;0.30;;;;;;;21.16;32.51;98973.59;5122734;28;20048;-59
2022/04/09 10:22:11;;;;;;;0.10;0.10;;;;;;;21.16;32.37;98973.59;5123461;28;20096;-58
2022/04/09 10:24:38;;;;;;;0.20;0.17;;;;;;;21.14;32.69;98967.59;5123946;28;20054;-59
2022/04/09 10:27:06;;;;;;;0.10;0.10;;;;;;;21.13;32.63;98968.78;5123716;28;20506;-59
2022/04/09 10:29:48;;;;;;;0.20;0.20;;;;;;;21.14;32.37;98965.59;5121767;28;20455;-59
2022/04/09 10:32:41;;;;;;;0.10;0.10;;;;;;;21.14;32.71;98964.81;5122331;28;20158;-58
2022/04/09 10:35:22;;;;;;;;;;;;;;;21.20;32.32;98968.03;5120945;28;20047;-58
2022/04/09 10:38:14;;;;;;;0.10;0.10;;;;;;;21.17;32.37;98972.41;5123147;28;20014;-59
2022/04/09 10:40:42;;;;;;;0.17;0.17;;;;;;;21.16;32.62;98985.50;5123772;28;20047;-58
2022/04/09 10:43:08;;;;;;;0.32;0.30;;;;;;;21.15;32.39;98985.91;5114842;28;20038;-58
2022/04/09 10:46:02;;;;;;;0.32;0.20;;;;;;;21.17;32.62;98989.88;5116784;28;20042;-59
2022/04/09 10:48:33;;;;;;;;;;;;;;;21.21;32.42;98989.88;5123495;28;20147;-59
2022/04/09 10:51:05;;;;;;;0.22;0.20;;;;;;;21.21;32.76;98980.75;5116739;28;19938;-59
2022/04/09 10:53:32;;;;;;;0.55;0.30;;;;;;;21.20;32.67;98985.50;5118828;28;20047;-59
2022/04/09 10:56:26;;;;;;;0.32;0.20;;;;;;;21.20;33.04;98982.72;5115001;27;20148;-60
2022/04/09 10:59:18;;;;;;;0.40;0.20;;;;;;;21.26;33.24;98983.16;5117121;27;20122;-64
2022/04/09 11:01:43;;;;;;;1.42;0.20;;;;;;;21.30;33.38;98976.47;5100570;28;20039;-65
2022/04/09 11:04:31;;;;;;;2.47;0.32;;;;;;;21.34;33.83;98982.84;5119266;27;20065;-63
2022/04/09 11:07:12;;;;;;;0.63;0.30;;;;;;;21.36;34.16;98976.88;5116907;28;20078;-62
2022/04/09 11:09:56;;;;;;;0.52;0.30;;;;;;;21.35;34.08;98978.88;5114075;28;20054;-64
2022/04/09 11:12:25;;;;;;;0.43;0.30;;;;;;;21.37;34.33;98987.66;5110792;28;20063;-68
2022/04/09 11:14:56;;;;;;;2.28;0.30;;;;;;;21.39;34.52;98995.59;5111705;28;20043;-64
2022/04/09 11:17:25;;;;;;;4.50;0.30;;;;;;;21.41;34.63;98990.44;5111286;28;20138;-64
2022/04/09 11:19:52;;;;;;;0.47;0.20;;;;;;;21.45;34.46;98988.50;5106334;27;20042;-64
2022/04/09 11:22:18;;;;;;;0.77;0.30;;;;;;;21.49;34.69;98983.72;5107952;28;20499;-64
2022/04/09 11:24:43;;;;;;;5.68;0.50;;;;;;;21.51;34.81;98986.94;5108465;28;20059;-64
2022/04/09 11:27:12;;;;;;;2.05;0.30;;;;;;;21.51;34.90;98988.91;5114783;27;20054;-63
2022/04/09 11:29:43;;;;;;;4.97;0.30;;;;;;;21.51;34.95;98988.91;5110761;27;20341;-64
2022/04/09 11:32:19;;;;;;;0.10;0.10;;;;;;;21.49;34.83;98988.50;5106584;27;20096;-63
2022/04/09 11:34:47;;;;;;;1.13;0.35;;;;;;;21.52;35.11;98993.28;5108962;27;20047;-61